Dades meteomassalio
Diari Summary for Juliol 5, 2017 Units:  Metric    English   Both
« Previous Day
Next Day »
Diari Semanal Mensual Anual Personalitzat
  Maxima: Minima: Mijana:
Temperatura: -17.8 °C -9.9 °C -4.1 °C
Rosada: -17.8 °C -12.6 °C -10 °C
Humitat: Humidity % 37 % 53 %
Velocitat del vent: 0 km/h 0 km/h 15 km/h
Racha vent: 0 km/h - -
Vent:- - ESE
Pressio: 0 hPa 34246 hPa -
Pluja: 0 mm    
Historical Graphs
 
 
Tabular Data for Juliol 5, 2017
Time Temperature Dew Point Pressure Wind Wind Speed Wind Gust Humidity Rainfall Rate (Hourly) solar Conditions
-17.8 °C -17.8 °C 0 hPa Calm     Humidity % 0 mm SolarRadiationWatts/m^2 W/m2 Conditions
00:01 -5.3 °C -11.1 °C 34371.3 hPa Calm     52 % 0 mm 0.0 W/m2 CLR
00:02 -5.3 °C -11.1 °C 34371.3 hPa Calm     52 % 0 mm 0.0 W/m2 CLR
00:07 -5.3 °C -10.9 °C 34371.3 hPa Calm     53 % 0 mm 0.0 W/m2 CLR
00:12 -5.4 °C -11 °C 34384.8 hPa Calm     53 % 0 mm 0.0 W/m2 CLR
00:14 -5.4 °C -11 °C 34384.8 hPa Calm     53 % 0 mm 0.0 W/m2 CLR
00:19 -5.6 °C -11.3 °C 34384.8 hPa Calm     52 % 0 mm 0.0 W/m2 CLR
00:24 -5.7 °C -11.3 °C 34371.3 hPa Calm     53 % 0 mm 0.0 W/m2 CLR
00:29 -5.8 °C -11.2 °C 34371.3 hPa Calm     54 % 0 mm 0.0 W/m2 CLR
00:34 -5.9 °C -11.2 °C 34384.8 hPa Calm     55 % 0 mm 0.0 W/m2 CLR
00:39 -6 °C -11.2 °C 34384.8 hPa Calm     55 % 0 mm 0.0 W/m2 CLR
00:44 -5.9 °C -11.3 °C 34371.3 hPa Calm     54 % 0 mm 0.0 W/m2 CLR
00:49 -5.9 °C -11.3 °C 34384.8 hPa Calm     54 % 0 mm 0.0 W/m2 CLR
00:54 -5.9 °C -11.5 °C 34371.3 hPa Calm     53 % 0 mm 0.0 W/m2 CLR
00:59 -6 °C -11.5 °C 34371.3 hPa Calm     53 % 0 mm 0.0 W/m2 CLR
01:04 -6 °C -11.5 °C 34371.3 hPa Calm     53 % 0 mm 0.0 W/m2 CLR
01:09 -6.1 °C -11.7 °C 34371.3 hPa Calm     52 % 0 mm 0.0 W/m2 CLR
01:14 -6.1 °C -11.6 °C 34371.3 hPa Calm     53 % 0 mm 0.0 W/m2 CLR
01:19 -6.2 °C -11.7 °C 34371.3 hPa Calm     53 % 0 mm 0.0 W/m2 CLR
01:20 -6.2 °C -11.7 °C 34384.8 hPa Calm     53 % 0 mm 0.0 W/m2 CLR
01:25 -6.3 °C -11.7 °C 34384.8 hPa Calm     54 % 0 mm 0.0 W/m2 CLR
01:31 -6.5 °C -11.8 °C 34371.3 hPa Calm     54 % 0 mm 0.0 W/m2 CLR
01:36 -6.7 °C -11.8 °C 34371.3 hPa Calm     56 % 0 mm 0.0 W/m2 CLR
01:41 -6.8 °C -11.5 °C 34384.8 hPa Calm     58 % 0 mm 0.0 W/m2 CLR
01:46 -6.8 °C -11.5 °C 34371.3 hPa Calm     58 % 0 mm 0.0 W/m2 CLR
01:51 -6.7 °C -11.3 °C 34371.3 hPa Calm     59 % 0 mm 0.0 W/m2 CLR
01:56 -6.7 °C -11.4 °C 34371.3 hPa Calm     58 % 0 mm 0.0 W/m2 CLR
02:01 -6.8 °C -11.5 °C 34384.8 hPa Calm     58 % 0 mm 0.0 W/m2 CLR
02:06 -6.9 °C -11.9 °C 34384.8 hPa Calm     56 % 0 mm 0.0 W/m2 CLR
02:11 -7.1 °C -11.1 °C 34371.3 hPa Calm     63 % 0 mm 0.0 W/m2 CLR
02:16 -6.9 °C -11.5 °C 34371.3 hPa Calm     59 % 0 mm 0.0 W/m2 CLR
02:21 -6.8 °C -10.8 °C 34371.3 hPa Calm     63 % 0 mm 0.0 W/m2 CLR
02:26 -6.8 °C -11.3 °C 34371.3 hPa Calm     59 % 0 mm 0.0 W/m2 CLR
02:31 -6.9 °C -11.2 °C 34371.3 hPa Calm     61 % 0 mm 0.0 W/m2 CLR
02:36 -7 °C -10.7 °C 34371.3 hPa Calm     65 % 0 mm 0.0 W/m2 CLR
02:41 -7.1 °C -10.8 °C 34371.3 hPa Calm     65 % 0 mm 0.0 W/m2 CLR
02:42 -7.1 °C -10.9 °C 34371.3 hPa Calm     64 % 0 mm 0.0 W/m2 CLR
02:47 -7.1 °C -10.6 °C 34371.3 hPa Calm     67 % 0 mm 0.0 W/m2 CLR
02:52 -7.1 °C -10.6 °C 34371.3 hPa Calm     67 % 0 mm 0.0 W/m2 CLR
02:57 -7.3 °C -11.8 °C 34371.3 hPa Calm     59 % 0 mm 0.0 W/m2 CLR
03:02 -7.4 °C -12.1 °C 34371.3 hPa Calm     58 % 0 mm 0.0 W/m2 CLR
03:07 -7.6 °C -12 °C 34371.3 hPa Calm     60 % 0 mm 0.0 W/m2 CLR
03:12 -7.7 °C -11.8 °C 34371.3 hPa Calm     62 % 0 mm 0.0 W/m2 CLR
03:17 -7.8 °C -11.8 °C 34371.3 hPa Calm     63 % 0 mm 0.0 W/m2 CLR
03:18 -7.8 °C -11.8 °C 34371.3 hPa Calm     63 % 0 mm 0.0 W/m2 CLR
03:23 -7.9 °C -11.5 °C 34371.3 hPa Calm     66 % 0 mm 0.0 W/m2 CLR
03:28 -7.9 °C -11.4 °C 34371.3 hPa Calm     67 % 0 mm 0.0 W/m2 CLR
03:33 -8 °C -11.8 °C 34371.3 hPa Calm     64 % 0 mm 0.0 W/m2 CLR
03:38 -8.2 °C -12.2 °C 34371.3 hPa Calm     62 % 0 mm 0.0 W/m2 CLR
03:43 -8.2 °C -12.2 °C 34371.3 hPa Calm     63 % 0 mm 0.0 W/m2 CLR
03:48 -8.4 °C -12.4 °C 34371.3 hPa Calm     63 % 0 mm 0.0 W/m2 CLR
03:53 -8.6 °C -12.1 °C 34371.3 hPa Calm     66 % 0 mm 0.0 W/m2 CLR
03:58 -8.6 °C -11.9 °C 34371.3 hPa Calm     68 % 0 mm 0.0 W/m2 CLR
04:03 -8.7 °C -12.2 °C 34371.3 hPa Calm     66 % 0 mm 0.0 W/m2 CLR
04:08 -8.7 °C -12.3 °C 34371.3 hPa Calm     66 % 0 mm 0.0 W/m2 CLR
04:13 -8.8 °C -12.3 °C 34371.3 hPa Calm     66 % 0 mm 0.0 W/m2 CLR
04:18 -8.8 °C -12.3 °C 34371.3 hPa Calm     67 % 0 mm 0.0 W/m2 CLR
04:23 -8.9 °C -12.2 °C 34371.3 hPa Calm     68 % 0 mm 0.0 W/m2 CLR
04:28 -9 °C -12.3 °C 34371.3 hPa Calm     68 % 0 mm 0.0 W/m2 CLR
04:33 -9.1 °C -12.2 °C 34371.3 hPa Calm     69 % 0 mm 0.0 W/m2 CLR
04:38 -9.1 °C -12.4 °C 34371.3 hPa Calm     68 % 0 mm 0.0 W/m2 CLR
04:43 -9.1 °C -12.4 °C 34371.3 hPa Calm     68 % 0 mm 0.0 W/m2 CLR
04:44 -9.2 °C -12.4 °C 34371.3 hPa Calm     68 % 0 mm 0.0 W/m2 CLR
04:49 -9.2 °C -12.3 °C 34371.3 hPa Calm     69 % 0 mm 0.0 W/m2 CLR
04:54 -9.2 °C -12.4 °C 34371.3 hPa Calm     69 % 0 mm 0.0 W/m2 CLR
04:59 -9.3 °C -12.4 °C 34371.3 hPa Calm     69 % 0 mm 0.0 W/m2 CLR
05:04 -9.3 °C -12.4 °C 34371.3 hPa Calm     69 % 0 mm 0.0 W/m2 CLR
05:09 -9.4 °C -12.6 °C 34371.3 hPa Calm     69 % 0 mm 0.0 W/m2 CLR
05:14 -9.4 °C -12.4 °C 34371.3 hPa Calm     70 % 0 mm 0.0 W/m2 CLR
05:19 -9.4 °C -12.4 °C 34361.1 hPa Calm     70 % 0 mm 0.0 W/m2 CLR
05:24 -9.5 °C -12.6 °C 34371.3 hPa Calm     70 % 0 mm 0.0 W/m2 CLR
05:29 -9.6 °C -12.5 °C 34361.1 hPa Calm     71 % 0 mm 0.0 W/m2 CLR
05:34 -9.7 °C -12.4 °C 34361.1 hPa Calm     72 % 0 mm 0.0 W/m2 CLR
05:39 -9.7 °C -12.4 °C 34361.1 hPa Calm     72 % 0 mm 0.0 W/m2 CLR
05:44 -9.7 °C -12.4 °C 34361.1 hPa Calm     72 % 0 mm 0.0 W/m2 CLR
05:49 -9.7 °C -12.4 °C 34361.1 hPa Calm     73 % 0 mm 0.0 W/m2 CLR
05:54 -9.8 °C -12.4 °C 34361.1 hPa Calm     73 % 0 mm 0.0 W/m2 CLR
05:59 -9.8 °C -12.4 °C 34361.1 hPa Calm     73 % 0 mm 0.0 W/m2 CLR
06:04 -9.8 °C -12.4 °C 34361.1 hPa Calm     73 % 0 mm 0.0 W/m2 CLR
06:09 -9.8 °C -12.5 °C 34371.3 hPa Calm     73 % 0 mm 0.0 W/m2 CLR
06:14 -9.8 °C -12.5 °C 34371.3 hPa Calm     73 % 0 mm 0.0 W/m2 CLR
06:19 -9.9 °C -12.4 °C 34371.3 hPa Calm     74 % 0 mm 0.0 W/m2 CLR
06:24 -9.9 °C -12.4 °C 34371.3 hPa Calm     74 % 0 mm 0.0 W/m2 OVC
06:29 -9.9 °C -12.3 °C 34371.3 hPa Calm     75 % 0 mm 0.0 W/m2 OVC
06:34 -9.8 °C -12.3 °C 34371.3 hPa Calm     75 % 0 mm 5.0 W/m2 OVC
06:39 -9.8 °C -12.3 °C 34371.3 hPa Calm     74 % 0 mm 7.0 W/m2 BKN
06:44 -9.8 °C -12.5 °C 34371.3 hPa Calm     73 % 0 mm 9.0 W/m2 BKN
06:49 -9.9 °C -12.6 °C 34371.3 hPa Calm     73 % 0 mm 11.0 W/m2 BKN
06:54 -9.9 °C -12.6 °C 34371.3 hPa Calm     73 % 0 mm 12.0 W/m2 BKN
06:59 -9.9 °C -12.5 °C 34371.3 hPa Calm     74 % 0 mm 14.0 W/m2 BKN
07:04 -9.9 °C -12.4 °C 34371.3 hPa Calm     74 % 0 mm 18.0 W/m2 BKN
07:09 -9.9 °C -12.6 °C 34384.8 hPa Calm     73 % 0 mm 25.0 W/m2 BKN
07:14 -9.9 °C -12.6 °C 34371.3 hPa Calm     73 % 0 mm 37.0 W/m2 BKN
07:19 -9.9 °C -12.4 °C 34384.8 hPa Calm     74 % 0 mm 47.0 W/m2 SCT
07:24 -9.8 °C -12.4 °C 34384.8 hPa Calm     73 % 0 mm 58.0 W/m2 SCT
07:29 -9.7 °C -12.3 °C 34384.8 hPa Calm     73 % 0 mm 69.0 W/m2 FEW
07:34 -9.5 °C -12.3 °C 34384.8 hPa Calm     72 % 0 mm 84.0 W/m2 FEW
07:39 -9.3 °C -12.1 °C 34384.8 hPa Calm     72 % 0 mm 97.0 W/m2 FEW
07:44 -9.1 °C -12 °C 34384.8 hPa Calm     71 % 0 mm 111.0 W/m2 CLR
07:49 -8.8 °C -11.8 °C 34384.8 hPa Calm     71 % 0 mm 123.0 W/m2 CLR
07:54 -8.6 °C -11.8 °C 34384.8 hPa Calm     69 % 0 mm 142.0 W/m2 CLR
07:59 -8.4 °C -11.8 °C 34384.8 hPa Calm     67 % 0 mm 162.0 W/m2 CLR
08:04 -8.2 °C -11.7 °C 34384.8 hPa Calm     66 % 0 mm 176.0 W/m2 CLR
08:09 -8 °C -11.6 °C 34395 hPa Calm     66 % 0 mm 192.0 W/m2 CLR
08:14 -7.9 °C -11.6 °C 34395 hPa Calm     65 % 0 mm 211.0 W/m2 CLR
08:19 -7.8 °C -11.5 °C 34395 hPa Calm     65 % 0 mm 225.0 W/m2 CLR
08:24 -7.6 °C -11.3 °C 34395 hPa Calm     65 % 0 mm 241.0 W/m2 CLR
08:29 -7.2 °C -10.9 °C 34395 hPa Calm     65 % 0 mm 255.0 W/m2 CLR
08:34 -6.9 °C -10.9 °C 34395 hPa Calm     63 % 0 mm 269.0 W/m2 CLR
08:39 -6.6 °C -10.9 °C 34395 hPa Calm     61 % 0 mm 288.0 W/m2 CLR
08:44 -6.4 °C -10.9 °C 34395 hPa Calm     60 % 0 mm 302.0 W/m2 CLR
08:49 -6.1 °C -10.7 °C 34395 hPa Calm     59 % 0 mm 316.0 W/m2 CLR
08:54 -5.9 °C -10.6 °C 34395 hPa Calm     59 % 0 mm 330.0 W/m2 CLR
08:59 -5.6 °C -10.3 °C 34395 hPa Calm     59 % 0 mm 348.0 W/m2 CLR
09:04 -5.3 °C -9.9 °C 34395 hPa Calm     59 % 0 mm 364.0 W/m2 CLR
09:09 -5.2 °C -9.8 °C 34395 hPa Calm     60 % 0 mm 378.0 W/m2 CLR
09:14 -5.1 °C -9.5 °C 34395 hPa Calm     61 % 0 mm 394.0 W/m2 CLR
09:19 -4.9 °C -9.5 °C 34395 hPa Calm     60 % 0 mm 413.0 W/m2 CLR
09:24 -4.7 °C -9.3 °C 34395 hPa Calm     60 % 0 mm 427.0 W/m2 CLR
09:29 -4.6 °C -9.4 °C 34395 hPa Calm     58 % 0 mm 439.0 W/m2 CLR
09:34 -4.4 °C -9.6 °C 34395 hPa Calm     56 % 0 mm 457.0 W/m2 CLR
09:39 -4.2 °C -9.7 °C 34395 hPa Calm     54 % 0 mm 471.0 W/m2 CLR
09:44 -4 °C -9.8 °C 34384.8 hPa Calm     52 % 0 mm 485.0 W/m2 CLR
09:49 -3.8 °C -9.8 °C 34395 hPa Calm     51 % 0 mm 499.0 W/m2 CLR
09:54 -3.7 °C -9.2 °C 34384.8 hPa Calm     54 % 0 mm 517.0 W/m2 CLR
09:59 -3.6 °C -9 °C 34384.8 hPa Calm     55 % 0 mm 531.0 W/m2 CLR
10:04 -3.4 °C -8.9 °C 34384.8 hPa Calm     54 % 0 mm 545.0 W/m2 CLR
10:09 -3.2 °C -9 °C 34384.8 hPa NE 9 km/h 9 km/h 53 % 0 mm 557.0 W/m2 CLR
10:14 -3.2 °C -8.8 °C 34384.8 hPa ENE 6 km/h 6 km/h 54 % 0 mm 571.0 W/m2 CLR
10:19 -3.2 °C -8.8 °C 34384.8 hPa NE 3.1 km/h   54 % 0 mm 584.0 W/m2 CLR
10:24 -3.2 °C -8.7 °C 34384.8 hPa NNE 17.9 km/h 17.9 km/h 54 % 0 mm 598.0 W/m2 CLR
10:29 -3.1 °C -8.8 °C 34384.8 hPa NE 11.9 km/h 11.9 km/h 53 % 0 mm 615.0 W/m2 CLR
10:34 -2.9 °C -8.7 °C 34371.3 hPa ENE 17.9 km/h 17.9 km/h 53 % 0 mm 629.0 W/m2 CLR
10:40 -2.7 °C -8.8 °C 34371.3 hPa NE 17.9 km/h 17.9 km/h 51 % 0 mm 640.0 W/m2 CLR
10:45 -2.8 °C -8.9 °C 34371.3 hPa NE 9 km/h 9.8 km/h 51 % 0 mm 652.0 W/m2 CLR
10:50 -2.7 °C -8.9 °C 34371.3 hPa NE 11.9 km/h 11.9 km/h 50 % 0 mm 668.0 W/m2 CLR
10:55 -2.6 °C -8.8 °C 34371.3 hPa ENE 15 km/h   50 % 0 mm 679.0 W/m2 CLR
11:00 -2.3 °C -9 °C 34371.3 hPa NE 20.9 km/h 20.9 km/h 48 % 0 mm 691.0 W/m2 CLR
11:05 -2.3 °C -9.1 °C 34371.3 hPa Calm     47 % 0 mm 703.0 W/m2 CLR
11:10 -2.2 °C -9.1 °C 34371.3 hPa North 12.9 km/h 12.9 km/h 47 % 0 mm 715.0 W/m2 CLR
11:15 -2 °C -9.1 °C 34371.3 hPa NNE 17.9 km/h 17.9 km/h 46 % 0 mm 729.0 W/m2 CLR
11:20 -2 °C -9.1 °C 34371.3 hPa ENE 23.8 km/h 23.8 km/h 46 % 0 mm 740.0 W/m2 CLR
11:25 -2 °C -8.8 °C 34361.1 hPa NE 20.9 km/h 20.9 km/h 47 % 0 mm 749.0 W/m2 CLR
11:30 -2 °C -9.1 °C 34361.1 hPa ENE 17.9 km/h 17.9 km/h 46 % 0 mm 759.0 W/m2 CLR
11:35 -2 °C -9.1 °C 34361.1 hPa NE 29.8 km/h 29.8 km/h 46 % 0 mm 772.0 W/m2 CLR
11:40 -2 °C -9.1 °C 34361.1 hPa ENE 26.9 km/h 26.9 km/h 46 % 0 mm 780.0 W/m2 CLR
11:45 -1.9 °C -9 °C 34361.1 hPa NNE 17.9 km/h 17.9 km/h 46 % 0 mm 789.0 W/m2 CLR
11:50 -1.8 °C -9.1 °C 34347.6 hPa NE 17.9 km/h 17.9 km/h 45 % 0 mm 800.0 W/m2 CLR
11:55 -1.8 °C -9.1 °C 34347.6 hPa NE 23.8 km/h 23.8 km/h 45 % 0 mm 810.0 W/m2 CLR
12:00 -1.7 °C -9.2 °C 34347.6 hPa NE 29.8 km/h 29.8 km/h 44 % 0 mm 821.0 W/m2 CLR
12:05 -1.6 °C -9.1 °C 34347.6 hPa NE 23.8 km/h 23.8 km/h 44 % 0 mm 830.0 W/m2 CLR
12:10 -1.4 °C -9.2 °C 34347.6 hPa East 23.8 km/h 23.8 km/h 43 % 0 mm 837.0 W/m2 CLR
12:15 -1.3 °C -9 °C 34361.1 hPa ENE 11.9 km/h 11.9 km/h 43 % 0 mm 846.0 W/m2 CLR
12:20 -1.2 °C -9.1 °C 34361.1 hPa ENE 15 km/h 15 km/h 42 % 0 mm 856.0 W/m2 CLR
12:25 -1.1 °C -9.1 °C 34347.6 hPa ENE 11.9 km/h 11.9 km/h 42 % 0 mm 860.0 W/m2 CLR
12:30 -1 °C -9.2 °C 34347.6 hPa ESE 15 km/h 15 km/h 41 % 0 mm 867.0 W/m2 CLR
12:35 -1.1 °C -9.1 °C 34347.6 hPa SE 23.3 km/h 23.3 km/h 42 % 0 mm 874.0 W/m2 CLR
12:40 -1.1 °C -9.1 °C 34347.6 hPa ESE 17.9 km/h 17.9 km/h 42 % 0 mm 881.0 W/m2 CLR
12:45 -0.9 °C -8.7 °C 34337.4 hPa ESE 20.9 km/h 20.9 km/h 43 % 0 mm 886.0 W/m2 CLR
12:50 -0.9 °C -8.8 °C 34337.4 hPa ESE 29.8 km/h 29.8 km/h 42 % 0 mm 889.0 W/m2 CLR
12:55 -0.9 °C -9.1 °C 34337.4 hPa East 10.3 km/h 10.3 km/h 41 % 0 mm 896.0 W/m2 CLR
13:00 -0.9 °C -9.1 °C 34337.4 hPa ESE 17.9 km/h 17.9 km/h 41 % 0 mm 904.0 W/m2 CLR
13:05 -0.8 °C -9.2 °C 34337.4 hPa SE 17.9 km/h 17.9 km/h 40 % 0 mm 905.0 W/m2 CLR
13:10 -0.7 °C -8.8 °C 34337.4 hPa ENE 11.9 km/h 11.9 km/h 41 % 0 mm 905.0 W/m2 CLR
13:12 -0.6 °C -9.2 °C 34337.4 hPa East 26.9 km/h 26.9 km/h 39 % 0 mm 911.0 W/m2 CLR
13:17 -0.5 °C -9.2 °C 34337.4 hPa SE 20.9 km/h 20.9 km/h 39 % 0 mm 914.0 W/m2 CLR
13:22 -0.7 °C -9.3 °C 34327.3 hPa SSE 20.9 km/h   39 % 0 mm 916.0 W/m2 CLR
13:27 -0.5 °C -8.9 °C 34327.3 hPa East 20.9 km/h 20.9 km/h 40 % 0 mm 916.0 W/m2 CLR
13:32 -0.4 °C -8.9 °C 34327.3 hPa NE 15 km/h 15 km/h 40 % 0 mm 919.0 W/m2 CLR
13:37 -0.3 °C -8.5 °C 34327.3 hPa East 26.9 km/h 26.9 km/h 41 % 0 mm 921.0 W/m2 CLR
13:42 -0.3 °C -8.4 °C 34327.3 hPa SE 29.8 km/h 29.8 km/h 42 % 0 mm 921.0 W/m2 CLR
13:47 -0.4 °C -8.4 °C 34327.3 hPa ENE 29.8 km/h 29.8 km/h 42 % 0 mm 928.0 W/m2 CLR
13:52 -0.3 °C -8.2 °C 34327.3 hPa ESE 23.3 km/h 23.3 km/h 43 % 0 mm 926.0 W/m2 CLR
13:57 -0.3 °C -8.1 °C 34313.7 hPa ENE 11.9 km/h 11.9 km/h 43 % 0 mm 930.0 W/m2 CLR
14:02 -0.3 °C -8.1 °C 34313.7 hPa ENE 29.8 km/h 29.8 km/h 43 % 0 mm 930.0 W/m2 CLR
14:07 -0.2 °C -8 °C 34313.7 hPa ENE 29.8 km/h 29.8 km/h 43 % 0 mm 928.0 W/m2 CLR
14:12 -0.3 °C -7.9 °C 34313.7 hPa ESE 29.8 km/h 29.8 km/h 44 % 0 mm 928.0 W/m2 CLR
14:17 -0.2 °C -7.6 °C 34303.6 hPa ENE 29.8 km/h 29.8 km/h 45 % 0 mm 930.0 W/m2 CLR
14:23 -0.2 °C -7.8 °C 34303.6 hPa East 23.8 km/h 23.8 km/h 44 % 0 mm 932.0 W/m2 CLR
14:28 -0.2 °C -7.9 °C 34303.6 hPa ENE 29.8 km/h 29.8 km/h 44 % 0 mm 930.0 W/m2 CLR
14:33 -0.2 °C -7.6 °C 34303.6 hPa ESE 32.8 km/h 32.8 km/h 45 % 0 mm 923.0 W/m2 CLR
14:38 -0.2 °C -7.9 °C 34303.6 hPa East 35.7 km/h 35.7 km/h 44 % 0 mm 921.0 W/m2 CLR
14:43 -0.2 °C -7.7 °C 34303.6 hPa ENE 38.8 km/h 38.8 km/h 45 % 0 mm 914.0 W/m2 CLR
14:48 -0.3 °C -7.8 °C 34303.6 hPa ENE 38.8 km/h 38.8 km/h 45 % 0 mm 918.0 W/m2 CLR
14:53 -0.2 °C -7.8 °C 34303.6 hPa East 29.8 km/h 29.8 km/h 44 % 0 mm 914.0 W/m2 CLR
14:58 -0.1 °C -7.9 °C 34293.4 hPa East 35.7 km/h 35.7 km/h 43 % 0 mm 907.0 W/m2 CLR
15:03 -0.1 °C -7.7 °C 34293.4 hPa ENE 38.8 km/h 38.8 km/h 44 % 0 mm 900.0 W/m2 CLR
15:08 -0.1 °C -7.7 °C 34293.4 hPa East 38.8 km/h 38.8 km/h 44 % 0 mm 898.0 W/m2 CLR
15:13 -0.1 °C -7.7 °C 34279.9 hPa ENE 41.7 km/h 41.7 km/h 44 % 0 mm 893.0 W/m2 CLR
15:18 -0.1 °C -7.7 °C 34279.9 hPa East 41.7 km/h 41.7 km/h 44 % 0 mm 889.0 W/m2 CLR
15:20 -0.1 °C -7.7 °C 34279.9 hPa East 23.8 km/h 23.8 km/h 44 % 0 mm 888.0 W/m2 CLR
15:25 0.1 °C -7.8 °C 34279.9 hPa ESE 35.7 km/h 35.7 km/h 43 % 0 mm 884.0 W/m2 CLR
15:30 -0.1 °C -7.7 °C 34279.9 hPa ESE 32.8 km/h 32.8 km/h 44 % 0 mm 875.0 W/m2 CLR
15:35 -0.2 °C -7.8 °C 34279.9 hPa ESE 35.7 km/h 35.7 km/h 44 % 0 mm 874.0 W/m2 CLR
15:40 -0.1 °C -7.7 °C 34279.9 hPa East 35.7 km/h 35.7 km/h 44 % 0 mm 867.0 W/m2 CLR
15:45 -0.2 °C -7.8 °C 34269.7 hPa ENE 41.7 km/h 41.7 km/h 44 % 0 mm 858.0 W/m2 CLR
15:50 -0.2 °C -7.8 °C 34279.9 hPa East 44.7 km/h 44.7 km/h 44 % 0 mm 851.0 W/m2 CLR
15:55 -0.2 °C -7.8 °C 34279.9 hPa ESE 47.6 km/h 47.6 km/h 44 % 0 mm 842.0 W/m2 CLR
16:00 0.1 °C -7.8 °C 34269.7 hPa East 38.8 km/h 38.8 km/h 43 % 0 mm 831.0 W/m2 CLR
16:05 -0.1 °C -7.9 °C 34269.7 hPa East 29.8 km/h 29.8 km/h 43 % 0 mm 823.0 W/m2 CLR
16:10 0.1 °C -8.2 °C 34269.7 hPa East 38.8 km/h 38.8 km/h 41 % 0 mm 816.0 W/m2 CLR
16:15 0.2 °C -7.9 °C 34269.7 hPa East 38.8 km/h 38.8 km/h 42 % 0 mm 807.0 W/m2 CLR
16:20 0.3 °C -7.8 °C 34256.2 hPa ESE 32.8 km/h 32.8 km/h 42 % 0 mm 796.0 W/m2 CLR
16:25 0.3 °C -7.9 °C 34269.7 hPa East 38.8 km/h 38.8 km/h 41 % 0 mm 788.0 W/m2 CLR
16:30 0.4 °C -8.4 °C 34269.7 hPa SE 35.7 km/h 35.7 km/h 39 % 0 mm 777.0 W/m2 CLR
16:35 0.6 °C -8.4 °C 34256.2 hPa ESE 38.8 km/h 38.8 km/h 38 % 0 mm 766.0 W/m2 CLR
16:40 0.4 °C -8.5 °C 34256.2 hPa SE 29.8 km/h 29.8 km/h 38 % 0 mm 754.0 W/m2 CLR
16:45 0.4 °C -8.4 °C 34256.2 hPa SSE 41.7 km/h 41.7 km/h 39 % 0 mm 745.0 W/m2 CLR
16:50 0.4 °C -8.3 °C 34256.2 hPa ESE 38.8 km/h 38.8 km/h 39 % 0 mm 735.0 W/m2 CLR
16:55 0.4 °C -8.1 °C 34256.2 hPa East 44.7 km/h 44.7 km/h 40 % 0 mm 724.0 W/m2 CLR
17:00 0.4 °C -8.2 °C 34256.2 hPa SE 47.6 km/h 47.6 km/h 40 % 0 mm 710.0 W/m2 CLR
17:05 0.4 °C -8.3 °C 34269.7 hPa ESE 47.6 km/h 47.6 km/h 39 % 0 mm 700.0 W/m2 CLR
17:10 0.3 °C -8.2 °C 34256.2 hPa SE 31.1 km/h 31.1 km/h 40 % 0 mm 686.0 W/m2 CLR
17:15 0.3 °C -8.7 °C 34256.2 hPa SE 50.7 km/h 50.7 km/h 38 % 0 mm 675.0 W/m2 CLR
17:20 0.3 °C -8.7 °C 34256.2 hPa SE 44.7 km/h 44.7 km/h 38 % 0 mm 664.0 W/m2 CLR
17:25 0.2 °C -8.6 °C 34256.2 hPa SE 53.6 km/h 53.6 km/h 39 % 0 mm 647.0 W/m2 CLR
17:30 0.3 °C -8.7 °C 34256.2 hPa SSE 35.7 km/h 35.7 km/h 38 % 0 mm 635.0 W/m2 CLR
17:35 0.3 °C -8.9 °C 34256.2 hPa SSE 50.7 km/h 50.7 km/h 37 % 0 mm 622.0 W/m2 CLR
17:40 0.1 °C -8.7 °C 34256.2 hPa SSE 50.7 km/h 50.7 km/h 39 % 0 mm 610.0 W/m2 CLR
17:45 0.1 °C -8.4 °C 34256.2 hPa ESE 41.4 km/h 41.4 km/h 40 % 0 mm 592.0 W/m2 CLR
17:50 -0.2 °C -8.4 °C 34256.2 hPa ESE 44.7 km/h 44.7 km/h 41 % 0 mm 582.0 W/m2 CLR
17:55 -0.3 °C -8.3 °C 34256.2 hPa ESE 38.8 km/h 38.8 km/h 42 % 0 mm 566.0 W/m2 CLR
18:00 -0.3 °C -8.2 °C 34256.2 hPa ESE 38.8 km/h 38.8 km/h 43 % 0 mm 555.0 W/m2 CLR
18:05 -0.5 °C -8.1 °C 34256.2 hPa ESE 41.7 km/h 41.7 km/h 44 % 0 mm 541.0 W/m2 CLR
18:10 -0.6 °C -8.2 °C 34256.2 hPa SE 41.7 km/h 41.7 km/h 44 % 0 mm 526.0 W/m2 CLR
18:15 -0.8 °C -8.2 °C 34256.2 hPa ESE 38.8 km/h 38.8 km/h 45 % 0 mm 510.0 W/m2 CLR
18:20 -0.9 °C -8.1 °C 34256.2 hPa ESE 41.7 km/h 41.7 km/h 46 % 0 mm 497.0 W/m2 CLR
18:25 -0.9 °C -8.1 °C 34256.2 hPa SE 50.7 km/h 50.7 km/h 46 % 0 mm 480.0 W/m2 CLR
18:31 -1.1 °C -8.3 °C 34246 hPa ESE 50.7 km/h 50.7 km/h 46 % 0 mm 462.0 W/m2 CLR
18:36 -1.2 °C -8.4 °C 34246 hPa ESE 44.7 km/h 44.7 km/h 46 % 0 mm 436.0 W/m2 CLR
18:41 -1.2 °C -8.4 °C 34256.2 hPa SE 47.6 km/h 47.6 km/h 46 % 0 mm 424.0 W/m2 CLR
18:46 -1.1 °C -8.3 °C 34256.2 hPa SSE 36.2 km/h 36.2 km/h 46 % 0 mm 410.0 W/m2 CLR
18:51 -1.1 °C -8.4 °C 34246 hPa ESE 51.8 km/h 51.8 km/h 45 % 0 mm 396.0 W/m2 CLR
18:56 -1.3 °C -8.4 °C 34246 hPa SE 47.6 km/h 47.6 km/h 46 % 0 mm 374.0 W/m2 CLR
19:01 -1.3 °C -8.5 °C 34246 hPa ESE 47.6 km/h 47.6 km/h 46 % 0 mm 360.0 W/m2 CLR
19:06 -1.4 °C -8.4 °C 34246 hPa SSE 41.7 km/h 41.7 km/h 47 % 0 mm 352.0 W/m2 CLR
19:11 -1.4 °C -8.6 °C 34246 hPa SE 38.8 km/h 38.8 km/h 46 % 0 mm 339.0 W/m2 CLR
19:16 -1.5 °C -8.4 °C 34246 hPa ESE 38.8 km/h 38.8 km/h 47 % 0 mm 325.0 W/m2 CLR
19:21 -1.4 °C -8.4 °C 34246 hPa SE 41.7 km/h 41.7 km/h 47 % 0 mm 313.0 W/m2 CLR
19:26 -1.5 °C -8.4 °C 34246 hPa SE 29.8 km/h 29.8 km/h 47 % 0 mm 301.0 W/m2 CLR
19:31 -1.4 °C -8.4 °C 34246 hPa SE 32.8 km/h 32.8 km/h 47 % 0 mm 283.0 W/m2 CLR
19:36 -1.4 °C -8.4 °C 34246 hPa ESE 20.9 km/h 20.9 km/h 47 % 0 mm 262.0 W/m2 CLR
19:41 -1.5 °C -8.4 °C 34246 hPa ESE 29.8 km/h 29.8 km/h 47 % 0 mm 262.0 W/m2 CLR
19:46 -1.4 °C -8.6 °C 34246 hPa ESE 26.9 km/h 26.9 km/h 46 % 0 mm 244.0 W/m2 CLR
19:51 -1.4 °C -8.6 °C 34246 hPa ESE 29.8 km/h 29.8 km/h 46 % 0 mm 221.0 W/m2 CLR
19:56 -1.6 °C -8.7 °C 34246 hPa ESE 29.8 km/h 29.8 km/h 46 % 0 mm 206.0 W/m2 CLR
20:01 -1.6 °C -8.7 °C 34246 hPa ESE 31.1 km/h 31.1 km/h 46 % 0 mm 186.0 W/m2 CLR
20:06 -1.7 °C -8.8 °C 34246 hPa ESE 32.8 km/h 32.8 km/h 46 % 0 mm 167.0 W/m2 CLR
20:11 -1.8 °C -8.9 °C 34246 hPa SE 26.9 km/h 26.9 km/h 46 % 0 mm 151.0 W/m2 CLR
20:16 -1.8 °C -9.1 °C 34246 hPa ESE 11.9 km/h 11.9 km/h 45 % 0 mm 135.0 W/m2 CLR
20:21 -1.7 °C -9 °C 34256.2 hPa ESE 32.8 km/h 32.8 km/h 45 % 0 mm 120.0 W/m2 CLR
20:26 -1.8 °C -9.3 °C 34246 hPa SE 23.8 km/h 23.8 km/h 44 % 0 mm 104.0 W/m2 CLR
20:31 -1.8 °C -9.3 °C 34246 hPa ESE 29.8 km/h 29.8 km/h 44 % 0 mm 91.0 W/m2 CLR
20:36 -1.9 °C -9.3 °C 34246 hPa SE 31.1 km/h 31.1 km/h 44 % 0 mm 79.0 W/m2 FEW
20:41 -1.9 °C -9.4 °C 34246 hPa ESE 23.8 km/h 23.8 km/h 44 % 0 mm 67.0 W/m2 FEW
20:46 -2 °C -9.5 °C 34256.2 hPa ESE 15 km/h 15 km/h 44 % 0 mm 58.0 W/m2 SCT
20:51 -2.1 °C -9.1 °C 34256.2 hPa ESE 15 km/h 15 km/h 46 % 0 mm 39.0 W/m2 BKN
20:56 -2.3 °C -8.9 °C 34256.2 hPa ESE 17.9 km/h 17.9 km/h 48 % 0 mm 39.0 W/m2 BKN
21:01 -2.4 °C -8.9 °C 34256.2 hPa SE 31.1 km/h 31.1 km/h 49 % 0 mm 32.0 W/m2 BKN
21:06 -2.6 °C -9 °C 34256.2 hPa ESE 26.9 km/h 26.9 km/h 49 % 0 mm 26.0 W/m2 BKN
21:11 -2.6 °C -9.1 °C 34256.2 hPa ESE 26.9 km/h 26.9 km/h 49 % 0 mm 21.0 W/m2 BKN
21:16 -2.7 °C -8.9 °C 34256.2 hPa ESE 23.8 km/h 23.8 km/h 50 % 0 mm 18.0 W/m2 BKN
21:21 -2.7 °C -9.2 °C 34256.2 hPa SE 26.9 km/h 26.9 km/h 49 % 0 mm 12.0 W/m2 BKN
21:26 -2.7 °C -9.4 °C 34256.2 hPa SE 25.9 km/h 25.9 km/h 48 % 0 mm 9.0 W/m2 BKN
21:31 -2.8 °C -9.3 °C 34256.2 hPa SSE 29.8 km/h 29.8 km/h 49 % 0 mm 5.0 W/m2 OVC
21:36 -2.9 °C -9.3 °C 34256.2 hPa ESE 20.9 km/h 20.9 km/h 49 % 0 mm 0.0 W/m2 OVC
21:41 -3 °C -9.3 °C 34256.2 hPa East 9 km/h 9 km/h 50 % 0 mm 0.0 W/m2 OVC
21:46 -3.1 °C -9.2 °C 34256.2 hPa NE 12.9 km/h 12.9 km/h 51 % 0 mm 0.0 W/m2 CLR
21:51 -3.2 °C -9.1 °C 34256.2 hPa East 12.9 km/h 12.9 km/h 52 % 0 mm 0.0 W/m2 CLR
21:56 -3.3 °C -9.2 °C 34256.2 hPa Calm     52 % 0 mm 0.0 W/m2 CLR
22:01 -3.4 °C -9.3 °C 34269.7 hPa ESE 23.8 km/h 23.8 km/h 52 % 0 mm 0.0 W/m2 CLR
22:06 -3.4 °C -9.4 °C 34269.7 hPa ESE 15 km/h 15 km/h 51 % 0 mm 0.0 W/m2 CLR
22:11 -3.4 °C -9.5 °C 34279.9 hPa ESE 17.9 km/h 17.9 km/h 51 % 0 mm 0.0 W/m2 CLR
22:16 -3.4 °C -9.6 °C 34279.9 hPa ESE 9 km/h 9 km/h 50 % 0 mm 0.0 W/m2 CLR
22:21 -3.4 °C -9.7 °C 34279.9 hPa SE 15 km/h 15 km/h 50 % 0 mm 0.0 W/m2 CLR
22:26 -3.4 °C -9.7 °C 34293.4 hPa SE 15 km/h 15 km/h 50 % 0 mm 0.0 W/m2 CLR
22:31 -3.5 °C -9.9 °C 34293.4 hPa SE 9 km/h 9 km/h 49 % 0 mm 0.0 W/m2 CLR
22:36 -3.5 °C -9.9 °C 34293.4 hPa SE 11.9 km/h 11.9 km/h 49 % 0 mm 0.0 W/m2 CLR
22:41 -3.4 °C -10.1 °C 34293.4 hPa SSE 15.6 km/h 15.6 km/h 48 % 0 mm 0.0 W/m2 CLR
22:46 -3.4 °C -9.9 °C 34293.4 hPa SE 15 km/h 15 km/h 48 % 0 mm 0.0 W/m2 CLR
22:51 -3.4 °C -9.9 °C 34303.6 hPa SE 17.9 km/h 17.9 km/h 48 % 0 mm 0.0 W/m2 CLR
22:56 -3.4 °C -10 °C 34303.6 hPa Calm     48 % 0 mm 0.0 W/m2 CLR
23:01 -3.4 °C -9.8 °C 34303.6 hPa Calm     49 % 0 mm 0.0 W/m2 CLR
23:06 -3.4 °C -9.8 °C 34313.7 hPa Calm     49 % 0 mm 0.0 W/m2 CLR
23:11 -3.5 °C -9.9 °C 34313.7 hPa Calm     49 % 0 mm 0.0 W/m2 CLR
23:16 -3.5 °C -9.9 °C 34313.7 hPa Calm     49 % 0 mm 0.0 W/m2 CLR
23:21 -3.6 °C -9.8 °C 34313.7 hPa SSE 11.9 km/h 11.9 km/h 50 % 0 mm 0.0 W/m2 CLR
23:26 -3.6 °C -9.7 °C 34313.7 hPa Calm     51 % 0 mm 0.0 W/m2 CLR
23:31 -3.7 °C -9.7 °C 34327.3 hPa Calm     51 % 0 mm 0.0 W/m2 CLR
23:36 -3.7 °C -9.6 °C 34327.3 hPa SSW 9 km/h   52 % 0 mm 0.0 W/m2 CLR
23:37 -3.7 °C -9.6 °C 34327.3 hPa South 9 km/h 9 km/h 52 % 0 mm 0.0 W/m2 CLR
23:42 -3.7 °C -9.6 °C 34337.4 hPa South 6 km/h 6 km/h 52 % 0 mm 0.0 W/m2 CLR
23:47 -3.8 °C -9.7 °C 34347.6 hPa South 15.6 km/h 15.6 km/h 52 % 0 mm 0.0 W/m2 CLR
23:52 -3.8 °C -9.7 °C 34347.6 hPa SSE 20.8 km/h 20.8 km/h 52 % 0 mm 0.0 W/m2 CLR
23:57 -3.8 °C -9.6 °C 34347.6 hPa SE 20.8 km/h 20.8 km/h 53 % 0 mm 0.0 W/m2 CLR
Lo Temps de Massalio
Compliments of Weather Underground - 1.25 mb